Chester, Utah
Current Conditions -  °F | °C
As of 9:53 AM on Thursday 23 Oct 2014 (Local Time) from KPUC Reporting Station
Clear Clear  
Wind Chill: 53°   Ceiling: Unl
Heat Index: 53°   Visibility: 10mi
Dew Point: 32°   Wind: 3mph
Humidity: 45%   Direction: 180°S
Pressure: 30.28"   Gusts: NA
Location:  39.48°N, 111.56°W
Report Text: KPUC 231553Z AUTO 18003KT 10SM CLR 12/00 A3028 RMK AO2 SLP233 T01170000 TSNO
Loading
Personal Weather Stations






























Interactive Weather Map
Tropical Storm Tracking
New forecast layout! Learn more

10-Day Weather Forecast

Advertisements
Track Severe Weather on mobile